sensor_id;sensor_type;location;lat;lon;timestamp;P1;durP1;ratioP1;P2;durP2;ratioP2
45402;SDS011;47427;51.976;5.326;2023-09-19T00:03:00;18.90;;;16.95;;
45402;SDS011;47427;51.976;5.326;2023-09-19T00:06:04;18.77;;;17.40;;
45402;SDS011;47427;51.976;5.326;2023-09-19T00:09:09;17.50;;;16.45;;
45402;SDS011;47427;51.976;5.326;2023-09-19T00:12:12;17.55;;;16.45;;
45402;SDS011;47427;51.976;5.326;2023-09-19T00:15:15;19.10;;;17.67;;
45402;SDS011;47427;51.976;5.326;2023-09-19T00:18:19;18.80;;;17.20;;
45402;SDS011;47427;51.976;5.326;2023-09-19T00:21:23;18.55;;;17.10;;
45402;SDS011;47427;51.976;5.326;2023-09-19T00:24:25;18.45;;;17.25;;
45402;SDS011;47427;51.976;5.326;2023-09-19T00:27:30;19.75;;;17.80;;
45402;SDS011;47427;51.976;5.326;2023-09-19T00:30:35;19.40;;;17.45;;
45402;SDS011;47427;51.976;5.326;2023-09-19T00:33:40;19.13;;;17.50;;
45402;SDS011;47427;51.976;5.326;2023-09-19T00:36:41;19.60;;;17.92;;
45402;SDS011;47427;51.976;5.326;2023-09-19T00:39:45;18.85;;;17.55;;
45402;SDS011;47427;51.976;5.326;2023-09-19T00:42:49;18.98;;;17.02;;
45402;SDS011;47427;51.976;5.326;2023-09-19T00:45:53;19.20;;;17.77;;
45402;SDS011;47427;51.976;5.326;2023-09-19T00:48:56;17.50;;;16.40;;
45402;SDS011;47427;51.976;5.326;2023-09-19T00:51:59;17.77;;;16.45;;
45402;SDS011;47427;51.976;5.326;2023-09-19T00:55:02;18.77;;;17.10;;
45402;SDS011;47427;51.976;5.326;2023-09-19T00:58:07;19.27;;;17.55;;
45402;SDS011;47427;51.976;5.326;2023-09-19T01:01:10;18.77;;;17.15;;
45402;SDS011;47427;51.976;5.326;2023-09-19T01:04:16;18.40;;;16.95;;
45402;SDS011;47427;51.976;5.326;2023-09-19T01:07:19;20.15;;;17.90;;
45402;SDS011;47427;51.976;5.326;2023-09-19T01:10:24;19.70;;;17.85;;
45402;SDS011;47427;51.976;5.326;2023-09-19T01:13:43;19.75;;;17.92;;
45402;SDS011;47427;51.976;5.326;2023-09-19T01:17:20;18.98;;;17.38;;
45402;SDS011;47427;51.976;5.326;2023-09-19T01:24:07;19.27;;;17.27;;
45402;SDS011;47427;51.976;5.326;2023-09-19T01:30:26;20.08;;;18.27;;
45402;SDS011;47427;51.976;5.326;2023-09-19T01:37:01;19.58;;;17.55;;
45402;SDS011;47427;51.976;5.326;2023-09-19T01:40:04;19.20;;;17.85;;
45402;SDS011;47427;51.976;5.326;2023-09-19T01:43:20;20.50;;;18.55;;
45402;SDS011;47427;51.976;5.326;2023-09-19T01:46:35;20.08;;;18.38;;
45402;SDS011;47427;51.976;5.326;2023-09-19T01:49:42;19.70;;;17.75;;
45402;SDS011;47427;51.976;5.326;2023-09-19T01:53:14;19.92;;;18.33;;
45402;SDS011;47427;51.976;5.326;2023-09-19T01:59:57;20.52;;;18.45;;
45402;SDS011;47427;51.976;5.326;2023-09-19T02:03:16;20.52;;;18.38;;
45402;SDS011;47427;51.976;5.326;2023-09-19T02:06:20;20.45;;;18.27;;
45402;SDS011;47427;51.976;5.326;2023-09-19T02:09:26;21.38;;;19.15;;
45402;SDS011;47427;51.976;5.326;2023-09-19T02:12:28;18.98;;;17.35;;
45402;SDS011;47427;51.976;5.326;2023-09-19T02:15:32;21.20;;;18.98;;
45402;SDS011;47427;51.976;5.326;2023-09-19T02:18:36;19.95;;;17.85;;
45402;SDS011;47427;51.976;5.326;2023-09-19T02:21:39;19.35;;;17.80;;
45402;SDS011;47427;51.976;5.326;2023-09-19T02:24:42;20.63;;;18.50;;
45402;SDS011;47427;51.976;5.326;2023-09-19T02:27:45;26.65;;;18.38;;
45402;SDS011;47427;51.976;5.326;2023-09-19T02:30:48;19.05;;;17.67;;
45402;SDS011;47427;51.976;5.326;2023-09-19T02:33:52;19.83;;;17.90;;
45402;SDS011;47427;51.976;5.326;2023-09-19T02:36:56;21.80;;;17.45;;
45402;SDS011;47427;51.976;5.326;2023-09-19T02:39:57;21.10;;;18.92;;
45402;SDS011;47427;51.976;5.326;2023-09-19T02:43:00;19.33;;;17.52;;
45402;SDS011;47427;51.976;5.326;2023-09-19T02:46:04;19.05;;;17.40;;
45402;SDS011;47427;51.976;5.326;2023-09-19T02:49:08;19.30;;;17.67;;
45402;SDS011;47427;51.976;5.326;2023-09-19T02:52:09;19.67;;;17.98;;
45402;SDS011;47427;51.976;5.326;2023-09-19T02:55:13;19.77;;;17.95;;
45402;SDS011;47427;51.976;5.326;2023-09-19T02:58:19;19.67;;;17.95;;
45402;SDS011;47427;51.976;5.326;2023-09-19T03:01:22;19.17;;;17.80;;
45402;SDS011;47427;51.976;5.326;2023-09-19T03:04:24;22.02;;;19.67;;
45402;SDS011;47427;51.976;5.326;2023-09-19T03:07:27;21.33;;;17.73;;
45402;SDS011;47427;51.976;5.326;2023-09-19T03:10:30;19.48;;;17.48;;
45402;SDS011;47427;51.976;5.326;2023-09-19T03:13:33;22.83;;;17.90;;
45402;SDS011;47427;51.976;5.326;2023-09-19T03:16:37;19.52;;;17.75;;
45402;SDS011;47427;51.976;5.326;2023-09-19T03:19:40;23.02;;;18.67;;
45402;SDS011;47427;51.976;5.326;2023-09-19T03:22:43;18.30;;;16.92;;
45402;SDS011;47427;51.976;5.326;2023-09-19T03:25:48;22.30;;;18.00;;
45402;SDS011;47427;51.976;5.326;2023-09-19T03:28:50;20.35;;;18.33;;
45402;SDS011;47427;51.976;5.326;2023-09-19T03:31:53;20.15;;;18.10;;
45402;SDS011;47427;51.976;5.326;2023-09-19T03:34:56;19.80;;;17.80;;
45402;SDS011;47427;51.976;5.326;2023-09-19T03:37:59;20.00;;;17.90;;
45402;SDS011;47427;51.976;5.326;2023-09-19T03:41:02;19.25;;;17.75;;
45402;SDS011;47427;51.976;5.326;2023-09-19T03:44:04;21.17;;;18.08;;
45402;SDS011;47427;51.976;5.326;2023-09-19T03:47:07;20.38;;;18.33;;
45402;SDS011;47427;51.976;5.326;2023-09-19T03:50:10;22.05;;;18.70;;
45402;SDS011;47427;51.976;5.326;2023-09-19T03:53:13;19.83;;;17.90;;
45402;SDS011;47427;51.976;5.326;2023-09-19T03:56:15;20.38;;;17.92;;
45402;SDS011;47427;51.976;5.326;2023-09-19T03:59:18;19.98;;;17.98;;
45402;SDS011;47427;51.976;5.326;2023-09-19T04:02:24;19.58;;;17.95;;
45402;SDS011;47427;51.976;5.326;2023-09-19T04:05:27;19.70;;;17.65;;
45402;SDS011;47427;51.976;5.326;2023-09-19T04:08:28;19.02;;;17.33;;
45402;SDS011;47427;51.976;5.326;2023-09-19T04:11:31;19.40;;;17.85;;
45402;SDS011;47427;51.976;5.326;2023-09-19T04:14:35;24.73;;;18.15;;
45402;SDS011;47427;51.976;5.326;2023-09-19T04:17:38;18.75;;;17.38;;
45402;SDS011;47427;51.976;5.326;2023-09-19T04:20:39;20.30;;;18.85;;
45402;SDS011;47427;51.976;5.326;2023-09-19T04:23:42;20.08;;;17.67;;
45402;SDS011;47427;51.976;5.326;2023-09-19T04:26:45;21.08;;;18.83;;
45402;SDS011;47427;51.976;5.326;2023-09-19T04:30:07;19.48;;;17.77;;
45402;SDS011;47427;51.976;5.326;2023-09-19T04:33:14;20.50;;;18.15;;
45402;SDS011;47427;51.976;5.326;2023-09-19T04:36:16;19.77;;;18.25;;
45402;SDS011;47427;51.976;5.326;2023-09-19T04:39:19;18.98;;;17.30;;
45402;SDS011;47427;51.976;5.326;2023-09-19T04:42:23;20.15;;;18.08;;
45402;SDS011;47427;51.976;5.326;2023-09-19T04:45:26;19.50;;;17.98;;
45402;SDS011;47427;51.976;5.326;2023-09-19T04:48:30;22.80;;;19.20;;
45402;SDS011;47427;51.976;5.326;2023-09-19T04:51:33;20.48;;;18.70;;
45402;SDS011;47427;51.976;5.326;2023-09-19T04:54:38;20.30;;;18.23;;
45402;SDS011;47427;51.976;5.326;2023-09-19T04:57:40;19.15;;;17.70;;
45402;SDS011;47427;51.976;5.326;2023-09-19T05:00:43;20.83;;;18.73;;
45402;SDS011;47427;51.976;5.326;2023-09-19T05:03:46;20.33;;;18.52;;
45402;SDS011;47427;51.976;5.326;2023-09-19T05:06:54;20.63;;;18.58;;
45402;SDS011;47427;51.976;5.326;2023-09-19T05:09:55;20.35;;;18.25;;
45402;SDS011;47427;51.976;5.326;2023-09-19T05:12:58;20.58;;;19.00;;
45402;SDS011;47427;51.976;5.326;2023-09-19T05:16:01;20.63;;;18.95;;
45402;SDS011;47427;51.976;5.326;2023-09-19T05:19:04;20.98;;;19.15;;
45402;SDS011;47427;51.976;5.326;2023-09-19T05:22:06;20.73;;;19.13;;
45402;SDS011;47427;51.976;5.326;2023-09-19T05:25:09;21.38;;;19.42;;
45402;SDS011;47427;51.976;5.326;2023-09-19T05:28:13;23.27;;;19.52;;
45402;SDS011;47427;51.976;5.326;2023-09-19T05:31:17;34.13;;;20.20;;
45402;SDS011;47427;51.976;5.326;2023-09-19T05:34:18;22.60;;;20.60;;
45402;SDS011;47427;51.976;5.326;2023-09-19T05:37:21;22.30;;;20.42;;
45402;SDS011;47427;51.976;5.326;2023-09-19T05:40:25;22.15;;;20.38;;
45402;SDS011;47427;51.976;5.326;2023-09-19T05:43:29;22.50;;;20.27;;
45402;SDS011;47427;51.976;5.326;2023-09-19T05:46:32;21.05;;;19.40;;
45402;SDS011;47427;51.976;5.326;2023-09-19T05:49:33;21.25;;;19.38;;
45402;SDS011;47427;51.976;5.326;2023-09-19T05:52:40;20.92;;;18.77;;
45402;SDS011;47427;51.976;5.326;2023-09-19T05:55:44;20.58;;;18.98;;
45402;SDS011;47427;51.976;5.326;2023-09-19T05:58:47;23.05;;;20.52;;
45402;SDS011;47427;51.976;5.326;2023-09-19T06:01:51;21.05;;;19.25;;
45402;SDS011;47427;51.976;5.326;2023-09-19T06:04:55;21.73;;;19.55;;
45402;SDS011;47427;51.976;5.326;2023-09-19T06:07:58;22.38;;;20.38;;
45402;SDS011;47427;51.976;5.326;2023-09-19T06:11:09;21.98;;;20.00;;
45402;SDS011;47427;51.976;5.326;2023-09-19T06:14:13;21.63;;;20.00;;
45402;SDS011;47427;51.976;5.326;2023-09-19T06:17:16;23.70;;;20.48;;
45402;SDS011;47427;51.976;5.326;2023-09-19T06:23:25;22.38;;;20.23;;
45402;SDS011;47427;51.976;5.326;2023-09-19T06:26:31;21.92;;;19.95;;
45402;SDS011;47427;51.976;5.326;2023-09-19T06:29:34;22.27;;;20.05;;
45402;SDS011;47427;51.976;5.326;2023-09-19T06:32:37;22.60;;;20.33;;
45402;SDS011;47427;51.976;5.326;2023-09-19T06:35:40;22.88;;;20.25;;
45402;SDS011;47427;51.976;5.326;2023-09-19T06:38:42;22.60;;;20.65;;
45402;SDS011;47427;51.976;5.326;2023-09-19T06:41:45;22.83;;;20.50;;
45402;SDS011;47427;51.976;5.326;2023-09-19T06:44:49;23.20;;;20.40;;
45402;SDS011;47427;51.976;5.326;2023-09-19T06:47:52;22.55;;;19.98;;
45402;SDS011;47427;51.976;5.326;2023-09-19T06:50:57;21.90;;;20.00;;
45402;SDS011;47427;51.976;5.326;2023-09-19T06:54:04;22.20;;;20.02;;
45402;SDS011;47427;51.976;5.326;2023-09-19T06:57:08;21.65;;;19.58;;
45402;SDS011;47427;51.976;5.326;2023-09-19T07:00:12;21.40;;;19.63;;
45402;SDS011;47427;51.976;5.326;2023-09-19T07:03:22;26.27;;;19.73;;
45402;SDS011;47427;51.976;5.326;2023-09-19T07:06:28;21.60;;;19.42;;
45402;SDS011;47427;51.976;5.326;2023-09-19T07:09:31;21.45;;;19.75;;
45402;SDS011;47427;51.976;5.326;2023-09-19T07:12:33;20.98;;;19.38;;
45402;SDS011;47427;51.976;5.326;2023-09-19T07:15:35;23.85;;;21.08;;
45402;SDS011;47427;51.976;5.326;2023-09-19T07:18:43;22.63;;;20.52;;
45402;SDS011;47427;51.976;5.326;2023-09-19T07:21:47;21.77;;;20.05;;
45402;SDS011;47427;51.976;5.326;2023-09-19T07:24:52;23.73;;;20.83;;
45402;SDS011;47427;51.976;5.326;2023-09-19T07:27:57;23.30;;;20.80;;
45402;SDS011;47427;51.976;5.326;2023-09-19T07:31:02;21.73;;;19.98;;
45402;SDS011;47427;51.976;5.326;2023-09-19T07:34:07;21.52;;;19.60;;
45402;SDS011;47427;51.976;5.326;2023-09-19T07:37:10;21.88;;;19.75;;
45402;SDS011;47427;51.976;5.326;2023-09-19T07:40:14;22.83;;;20.67;;
45402;SDS011;47427;51.976;5.326;2023-09-19T07:43:18;21.10;;;19.08;;
45402;SDS011;47427;51.976;5.326;2023-09-19T07:46:21;21.65;;;19.65;;
45402;SDS011;47427;51.976;5.326;2023-09-19T07:49:24;22.13;;;19.80;;
45402;SDS011;47427;51.976;5.326;2023-09-19T07:52:25;21.75;;;19.83;;
45402;SDS011;47427;51.976;5.326;2023-09-19T07:55:29;21.67;;;19.77;;
45402;SDS011;47427;51.976;5.326;2023-09-19T07:58:51;21.15;;;19.38;;
45402;SDS011;47427;51.976;5.326;2023-09-19T08:01:52;23.75;;;21.30;;
45402;SDS011;47427;51.976;5.326;2023-09-19T08:04:55;21.38;;;19.45;;
45402;SDS011;47427;51.976;5.326;2023-09-19T08:08:00;22.40;;;19.90;;
45402;SDS011;47427;51.976;5.326;2023-09-19T08:11:03;22.27;;;20.10;;
45402;SDS011;47427;51.976;5.326;2023-09-19T08:14:13;21.95;;;19.73;;
45402;SDS011;47427;51.976;5.326;2023-09-19T08:17:15;21.73;;;19.00;;
45402;SDS011;47427;51.976;5.326;2023-09-19T08:20:18;21.30;;;19.08;;
45402;SDS011;47427;51.976;5.326;2023-09-19T08:23:22;23.63;;;20.20;;
45402;SDS011;47427;51.976;5.326;2023-09-19T08:26:25;22.95;;;20.20;;
45402;SDS011;47427;51.976;5.326;2023-09-19T08:29:28;20.65;;;18.63;;
45402;SDS011;47427;51.976;5.326;2023-09-19T08:32:32;21.08;;;18.92;;
45402;SDS011;47427;51.976;5.326;2023-09-19T08:35:35;22.25;;;19.38;;
45402;SDS011;47427;51.976;5.326;2023-09-19T08:38:39;21.05;;;18.85;;
45402;SDS011;47427;51.976;5.326;2023-09-19T08:41:41;24.02;;;19.35;;
45402;SDS011;47427;51.976;5.326;2023-09-19T08:44:45;20.52;;;18.58;;
45402;SDS011;47427;51.976;5.326;2023-09-19T08:51:20;22.40;;;19.90;;
45402;SDS011;47427;51.976;5.326;2023-09-19T08:54:35;21.95;;;19.88;;
45402;SDS011;47427;51.976;5.326;2023-09-19T08:57:40;21.23;;;19.00;;
45402;SDS011;47427;51.976;5.326;2023-09-19T09:00:44;23.75;;;19.65;;
45402;SDS011;47427;51.976;5.326;2023-09-19T09:03:53;21.30;;;19.10;;
45402;SDS011;47427;51.976;5.326;2023-09-19T09:06:56;23.67;;;20.10;;
45402;SDS011;47427;51.976;5.326;2023-09-19T09:10:01;22.50;;;19.95;;
45402;SDS011;47427;51.976;5.326;2023-09-19T09:13:05;21.35;;;19.20;;
45402;SDS011;47427;51.976;5.326;2023-09-19T09:16:09;22.48;;;19.33;;
45402;SDS011;47427;51.976;5.326;2023-09-19T09:19:11;22.75;;;18.42;;
45402;SDS011;47427;51.976;5.326;2023-09-19T09:22:14;21.35;;;19.17;;
45402;SDS011;47427;51.976;5.326;2023-09-19T09:25:18;20.48;;;18.30;;
45402;SDS011;47427;51.976;5.326;2023-09-19T09:28:26;20.77;;;18.88;;
45402;SDS011;47427;51.976;5.326;2023-09-19T09:31:29;21.17;;;19.17;;
45402;SDS011;47427;51.976;5.326;2023-09-19T09:34:33;22.23;;;18.70;;
45402;SDS011;47427;51.976;5.326;2023-09-19T09:37:36;19.52;;;17.65;;
45402;SDS011;47427;51.976;5.326;2023-09-19T09:40:49;20.23;;;18.35;;
45402;SDS011;47427;51.976;5.326;2023-09-19T09:43:59;21.98;;;19.85;;
45402;SDS011;47427;51.976;5.326;2023-09-19T09:47:22;19.27;;;17.50;;
45402;SDS011;47427;51.976;5.326;2023-09-19T09:50:50;19.00;;;17.40;;
45402;SDS011;47427;51.976;5.326;2023-09-19T09:54:09;19.63;;;17.92;;
45402;SDS011;47427;51.976;5.326;2023-09-19T09:57:19;20.95;;;18.95;;
45402;SDS011;47427;51.976;5.326;2023-09-19T10:00:24;19.48;;;17.67;;
45402;SDS011;47427;51.976;5.326;2023-09-19T10:03:33;20.63;;;18.55;;
45402;SDS011;47427;51.976;5.326;2023-09-19T10:06:40;20.98;;;19.27;;
45402;SDS011;47427;51.976;5.326;2023-09-19T10:09:51;20.40;;;18.60;;
45402;SDS011;47427;51.976;5.326;2023-09-19T10:12:54;20.98;;;18.83;;
45402;SDS011;47427;51.976;5.326;2023-09-19T10:16:06;18.42;;;16.77;;
45402;SDS011;47427;51.976;5.326;2023-09-19T10:19:23;19.02;;;17.25;;
45402;SDS011;47427;51.976;5.326;2023-09-19T10:22:40;19.92;;;17.85;;
45402;SDS011;47427;51.976;5.326;2023-09-19T10:25:44;21.07;;;18.10;;
45402;SDS011;47427;51.976;5.326;2023-09-19T10:28:49;19.67;;;18.05;;
45402;SDS011;47427;51.976;5.326;2023-09-19T10:31:54;21.33;;;17.33;;
45402;SDS011;47427;51.976;5.326;2023-09-19T10:35:00;21.42;;;18.55;;
45402;SDS011;47427;51.976;5.326;2023-09-19T10:38:06;19.73;;;16.63;;
45402;SDS011;47427;51.976;5.326;2023-09-19T10:41:11;21.98;;;19.75;;
45402;SDS011;47427;51.976;5.326;2023-09-19T10:44:25;19.83;;;18.20;;
45402;SDS011;47427;51.976;5.326;2023-09-19T10:47:29;18.25;;;16.42;;
45402;SDS011;47427;51.976;5.326;2023-09-19T10:50:32;19.60;;;17.45;;
45402;SDS011;47427;51.976;5.326;2023-09-19T10:53:55;17.95;;;16.60;;
45402;SDS011;47427;51.976;5.326;2023-09-19T10:57:07;18.08;;;16.50;;
45402;SDS011;47427;51.976;5.326;2023-09-19T11:00:12;18.98;;;17.58;;
45402;SDS011;47427;51.976;5.326;2023-09-19T11:03:27;20.85;;;18.90;;
45402;SDS011;47427;51.976;5.326;2023-09-19T11:06:31;19.88;;;17.90;;
45402;SDS011;47427;51.976;5.326;2023-09-19T11:12:56;17.35;;;15.63;;
45402;SDS011;47427;51.976;5.326;2023-09-19T11:19:03;18.73;;;16.88;;
45402;SDS011;47427;51.976;5.326;2023-09-19T11:22:05;19.00;;;17.38;;
45402;SDS011;47427;51.976;5.326;2023-09-19T11:28:31;18.42;;;17.13;;
45402;SDS011;47427;51.976;5.326;2023-09-19T11:31:43;17.70;;;16.23;;
45402;SDS011;47427;51.976;5.326;2023-09-19T11:34:46;18.30;;;16.48;;
45402;SDS011;47427;51.976;5.326;2023-09-19T11:41:36;18.77;;;17.33;;
45402;SDS011;47427;51.976;5.326;2023-09-19T11:47:32;17.33;;;15.07;;
45402;SDS011;47427;51.976;5.326;2023-09-19T11:50:37;17.70;;;16.05;;
45402;SDS011;47427;51.976;5.326;2023-09-19T11:54:03;16.50;;;15.20;;
45402;SDS011;47427;51.976;5.326;2023-09-19T11:57:14;16.45;;;15.07;;
45402;SDS011;47427;51.976;5.326;2023-09-19T12:00:23;16.13;;;14.60;;
45402;SDS011;47427;51.976;5.326;2023-09-19T12:03:25;17.70;;;16.23;;
45402;SDS011;47427;51.976;5.326;2023-09-19T12:06:31;16.75;;;15.43;;
45402;SDS011;47427;51.976;5.326;2023-09-19T12:09:41;16.02;;;14.73;;
45402;SDS011;47427;51.976;5.326;2023-09-19T12:12:51;16.00;;;14.65;;
45402;SDS011;47427;51.976;5.326;2023-09-19T12:15:55;17.60;;;16.08;;
45402;SDS011;47427;51.976;5.326;2023-09-19T12:18:57;17.67;;;15.73;;
45402;SDS011;47427;51.976;5.326;2023-09-19T12:22:19;17.92;;;16.50;;
45402;SDS011;47427;51.976;5.326;2023-09-19T12:25:25;17.73;;;16.48;;
45402;SDS011;47427;51.976;5.326;2023-09-19T12:28:28;18.10;;;16.77;;
45402;SDS011;47427;51.976;5.326;2023-09-19T12:31:32;19.13;;;17.23;;
45402;SDS011;47427;51.976;5.326;2023-09-19T12:34:38;18.63;;;17.08;;
45402;SDS011;47427;51.976;5.326;2023-09-19T12:37:44;17.95;;;16.73;;
45402;SDS011;47427;51.976;5.326;2023-09-19T12:40:50;17.83;;;16.52;;
45402;SDS011;47427;51.976;5.326;2023-09-19T12:43:53;17.52;;;15.95;;
45402;SDS011;47427;51.976;5.326;2023-09-19T12:46:56;17.90;;;16.48;;
45402;SDS011;47427;51.976;5.326;2023-09-19T12:53:24;17.05;;;15.77;;
45402;SDS011;47427;51.976;5.326;2023-09-19T12:56:29;17.88;;;16.15;;
45402;SDS011;47427;51.976;5.326;2023-09-19T12:59:52;18.67;;;16.90;;
45402;SDS011;47427;51.976;5.326;2023-09-19T13:06:35;17.58;;;16.27;;
45402;SDS011;47427;51.976;5.326;2023-09-19T13:09:39;16.38;;;15.18;;
45402;SDS011;47427;51.976;5.326;2023-09-19T13:12:42;16.98;;;15.88;;
45402;SDS011;47427;51.976;5.326;2023-09-19T13:15:52;17.50;;;16.05;;
45402;SDS011;47427;51.976;5.326;2023-09-19T13:18:55;17.90;;;16.70;;
45402;SDS011;47427;51.976;5.326;2023-09-19T13:22:01;18.05;;;16.40;;
45402;SDS011;47427;51.976;5.326;2023-09-19T13:25:06;16.77;;;15.70;;
45402;SDS011;47427;51.976;5.326;2023-09-19T13:28:37;16.77;;;15.68;;
45402;SDS011;47427;51.976;5.326;2023-09-19T13:31:41;16.80;;;15.70;;
45402;SDS011;47427;51.976;5.326;2023-09-19T13:34:45;15.20;;;14.20;;
45402;SDS011;47427;51.976;5.326;2023-09-19T13:37:48;15.93;;;14.88;;
45402;SDS011;47427;51.976;5.326;2023-09-19T13:40:53;17.13;;;15.65;;
45402;SDS011;47427;51.976;5.326;2023-09-19T13:43:55;15.75;;;14.57;;
45402;SDS011;47427;51.976;5.326;2023-09-19T13:46:59;18.13;;;16.80;;
45402;SDS011;47427;51.976;5.326;2023-09-19T13:53:08;17.90;;;16.80;;
45402;SDS011;47427;51.976;5.326;2023-09-19T13:56:09;17.50;;;16.10;;
45402;SDS011;47427;51.976;5.326;2023-09-19T13:59:13;16.60;;;15.50;;
45402;SDS011;47427;51.976;5.326;2023-09-19T14:02:15;16.83;;;15.75;;
45402;SDS011;47427;51.976;5.326;2023-09-19T14:05:20;17.17;;;15.97;;
45402;SDS011;47427;51.976;5.326;2023-09-19T14:08:22;18.05;;;16.42;;
45402;SDS011;47427;51.976;5.326;2023-09-19T14:11:25;17.77;;;16.25;;
45402;SDS011;47427;51.976;5.326;2023-09-19T14:14:29;17.98;;;16.70;;
45402;SDS011;47427;51.976;5.326;2023-09-19T14:17:32;17.83;;;16.25;;
45402;SDS011;47427;51.976;5.326;2023-09-19T14:20:37;18.27;;;16.90;;
45402;SDS011;47427;51.976;5.326;2023-09-19T14:23:43;18.65;;;17.38;;
45402;SDS011;47427;51.976;5.326;2023-09-19T14:26:48;17.87;;;16.37;;
45402;SDS011;47427;51.976;5.326;2023-09-19T14:29:51;17.40;;;16.38;;
45402;SDS011;47427;51.976;5.326;2023-09-19T14:32:53;18.70;;;17.17;;
45402;SDS011;47427;51.976;5.326;2023-09-19T14:35:56;17.67;;;16.30;;
45402;SDS011;47427;51.976;5.326;2023-09-19T14:38:59;18.40;;;17.17;;
45402;SDS011;47427;51.976;5.326;2023-09-19T14:42:02;17.08;;;15.98;;
45402;SDS011;47427;51.976;5.326;2023-09-19T14:45:05;18.98;;;17.13;;
45402;SDS011;47427;51.976;5.326;2023-09-19T14:48:07;17.77;;;16.58;;
45402;SDS011;47427;51.976;5.326;2023-09-19T14:51:10;17.80;;;16.60;;
45402;SDS011;47427;51.976;5.326;2023-09-19T14:54:14;17.83;;;16.63;;
45402;SDS011;47427;51.976;5.326;2023-09-19T14:57:20;18.00;;;16.55;;
45402;SDS011;47427;51.976;5.326;2023-09-19T15:00:24;18.25;;;16.40;;
45402;SDS011;47427;51.976;5.326;2023-09-19T15:03:27;18.50;;;17.17;;
45402;SDS011;47427;51.976;5.326;2023-09-19T15:06:32;19.02;;;17.30;;
45402;SDS011;47427;51.976;5.326;2023-09-19T15:09:36;18.42;;;16.92;;
45402;SDS011;47427;51.976;5.326;2023-09-19T15:12:37;18.35;;;16.77;;
45402;SDS011;47427;51.976;5.326;2023-09-19T15:15:40;17.90;;;16.55;;
45402;SDS011;47427;51.976;5.326;2023-09-19T15:18:45;19.08;;;17.55;;
45402;SDS011;47427;51.976;5.326;2023-09-19T15:21:51;17.83;;;16.30;;
45402;SDS011;47427;51.976;5.326;2023-09-19T15:24:53;19.02;;;17.30;;
45402;SDS011;47427;51.976;5.326;2023-09-19T15:27:55;18.02;;;16.67;;
45402;SDS011;47427;51.976;5.326;2023-09-19T15:31:18;19.00;;;17.48;;
45402;SDS011;47427;51.976;5.326;2023-09-19T15:34:20;18.25;;;17.05;;
45402;SDS011;47427;51.976;5.326;2023-09-19T15:37:22;19.17;;;17.55;;
45402;SDS011;47427;51.976;5.326;2023-09-19T15:40:25;18.77;;;17.58;;
45402;SDS011;47427;51.976;5.326;2023-09-19T15:43:30;19.05;;;17.52;;
45402;SDS011;47427;51.976;5.326;2023-09-19T15:46:33;18.08;;;16.73;;
45402;SDS011;47427;51.976;5.326;2023-09-19T15:49:37;18.10;;;16.77;;
45402;SDS011;47427;51.976;5.326;2023-09-19T15:52:39;19.08;;;17.67;;
45402;SDS011;47427;51.976;5.326;2023-09-19T15:55:42;19.40;;;17.85;;
45402;SDS011;47427;51.976;5.326;2023-09-19T15:58:45;19.40;;;17.77;;
45402;SDS011;47427;51.976;5.326;2023-09-19T16:01:49;19.48;;;18.13;;
45402;SDS011;47427;51.976;5.326;2023-09-19T16:04:51;19.35;;;17.95;;
45402;SDS011;47427;51.976;5.326;2023-09-19T16:07:57;19.08;;;17.60;;
45402;SDS011;47427;51.976;5.326;2023-09-19T16:10:59;18.67;;;17.25;;
45402;SDS011;47427;51.976;5.326;2023-09-19T16:14:02;17.80;;;16.60;;
45402;SDS011;47427;51.976;5.326;2023-09-19T16:17:05;19.10;;;17.15;;
45402;SDS011;47427;51.976;5.326;2023-09-19T16:20:11;18.13;;;16.83;;
45402;SDS011;47427;51.976;5.326;2023-09-19T16:23:14;18.55;;;17.00;;
45402;SDS011;47427;51.976;5.326;2023-09-19T16:26:17;17.55;;;16.35;;
45402;SDS011;47427;51.976;5.326;2023-09-19T16:29:21;17.90;;;16.20;;
45402;SDS011;47427;51.976;5.326;2023-09-19T16:35:28;16.23;;;14.95;;
45402;SDS011;47427;51.976;5.326;2023-09-19T16:38:31;16.55;;;15.15;;
45402;SDS011;47427;51.976;5.326;2023-09-19T16:41:34;16.85;;;15.50;;
45402;SDS011;47427;51.976;5.326;2023-09-19T16:44:37;16.92;;;15.82;;
45402;SDS011;47427;51.976;5.326;2023-09-19T16:47:40;17.10;;;15.82;;
45402;SDS011;47427;51.976;5.326;2023-09-19T16:51:02;17.35;;;16.05;;
45402;SDS011;47427;51.976;5.326;2023-09-19T16:54:09;17.75;;;16.40;;
45402;SDS011;47427;51.976;5.326;2023-09-19T16:57:11;18.83;;;16.85;;
45402;SDS011;47427;51.976;5.326;2023-09-19T17:00:16;17.40;;;16.10;;
45402;SDS011;47427;51.976;5.326;2023-09-19T17:03:43;17.45;;;15.98;;
45402;SDS011;47427;51.976;5.326;2023-09-19T17:06:46;17.60;;;16.25;;
45402;SDS011;47427;51.976;5.326;2023-09-19T17:09:49;18.92;;;17.20;;
45402;SDS011;47427;51.976;5.326;2023-09-19T17:12:53;17.30;;;16.02;;
45402;SDS011;47427;51.976;5.326;2023-09-19T17:16:00;17.88;;;16.25;;
45402;SDS011;47427;51.976;5.326;2023-09-19T17:19:07;17.33;;;16.00;;
45402;SDS011;47427;51.976;5.326;2023-09-19T17:22:10;19.15;;;17.42;;
45402;SDS011;47427;51.976;5.326;2023-09-19T17:25:13;16.95;;;15.68;;
45402;SDS011;47427;51.976;5.326;2023-09-19T17:28:15;18.85;;;17.25;;
45402;SDS011;47427;51.976;5.326;2023-09-19T17:31:18;17.80;;;16.50;;
45402;SDS011;47427;51.976;5.326;2023-09-19T17:34:26;16.85;;;15.77;;
45402;SDS011;47427;51.976;5.326;2023-09-19T17:37:29;18.00;;;16.30;;
45402;SDS011;47427;51.976;5.326;2023-09-19T17:40:40;17.33;;;15.93;;
45402;SDS011;47427;51.976;5.326;2023-09-19T17:43:42;16.70;;;15.43;;
45402;SDS011;47427;51.976;5.326;2023-09-19T17:49:50;16.52;;;15.13;;
45402;SDS011;47427;51.976;5.326;2023-09-19T17:53:11;17.05;;;15.70;;
45402;SDS011;47427;51.976;5.326;2023-09-19T17:56:13;16.95;;;15.52;;
45402;SDS011;47427;51.976;5.326;2023-09-19T17:59:18;16.70;;;15.60;;
45402;SDS011;47427;51.976;5.326;2023-09-19T18:02:21;17.20;;;15.73;;
45402;SDS011;47427;51.976;5.326;2023-09-19T18:05:23;17.15;;;15.68;;
45402;SDS011;47427;51.976;5.326;2023-09-19T18:08:25;17.33;;;15.82;;
45402;SDS011;47427;51.976;5.326;2023-09-19T18:11:28;18.05;;;16.25;;
45402;SDS011;47427;51.976;5.326;2023-09-19T18:14:31;16.90;;;15.57;;
45402;SDS011;47427;51.976;5.326;2023-09-19T18:17:34;18.33;;;16.75;;
45402;SDS011;47427;51.976;5.326;2023-09-19T18:20:37;18.55;;;16.60;;
45402;SDS011;47427;51.976;5.326;2023-09-19T18:26:45;19.77;;;18.30;;
45402;SDS011;47427;51.976;5.326;2023-09-19T18:29:49;19.50;;;17.85;;
45402;SDS011;47427;51.976;5.326;2023-09-19T18:32:52;17.73;;;16.58;;
45402;SDS011;47427;51.976;5.326;2023-09-19T18:35:59;17.70;;;16.40;;
45402;SDS011;47427;51.976;5.326;2023-09-19T18:39:11;18.88;;;17.30;;
45402;SDS011;47427;51.976;5.326;2023-09-19T18:42:16;17.98;;;16.63;;
45402;SDS011;47427;51.976;5.326;2023-09-19T18:45:18;19.00;;;17.35;;
45402;SDS011;47427;51.976;5.326;2023-09-19T18:48:22;17.85;;;16.48;;
45402;SDS011;47427;51.976;5.326;2023-09-19T18:51:25;17.13;;;15.82;;
45402;SDS011;47427;51.976;5.326;2023-09-19T18:54:28;17.48;;;16.13;;
45402;SDS011;47427;51.976;5.326;2023-09-19T18:57:30;18.02;;;16.45;;
45402;SDS011;47427;51.976;5.326;2023-09-19T19:00:32;17.65;;;15.85;;